createdAt,value
2023-03-31T00:01:46.593Z,12.70
2023-03-31T00:04:14.330Z,12.60
2023-03-31T00:06:42.534Z,12.60
2023-03-31T00:09:12.715Z,12.60
2023-03-31T00:11:40.102Z,12.60
2023-03-31T00:14:07.916Z,12.50
2023-03-31T00:16:35.491Z,12.30
2023-03-31T00:19:02.576Z,12.20
2023-03-31T00:21:30.352Z,12.20
2023-03-31T00:23:58.850Z,12.10
2023-03-31T00:26:27.659Z,12.10
2023-03-31T00:28:54.974Z,12.20
2023-03-31T00:31:22.568Z,12.30
2023-03-31T00:33:49.841Z,12.40
2023-03-31T00:36:17.212Z,12.20
2023-03-31T00:38:44.197Z,12.20
2023-03-31T00:41:11.203Z,12.00
2023-03-31T00:43:39.709Z,12.10
2023-03-31T00:46:18.164Z,11.90
2023-03-31T00:48:48.785Z,11.80
2023-03-31T00:51:15.908Z,11.80
2023-03-31T00:53:43.212Z,11.80
2023-03-31T00:56:14.647Z,11.90
2023-03-31T00:58:44.566Z,12.00
2023-03-31T01:01:16.384Z,11.90
2023-03-31T01:03:44.072Z,11.90
2023-03-31T01:06:11.307Z,11.80
2023-03-31T01:08:40.658Z,11.90
2023-03-31T01:11:10.274Z,11.80
2023-03-31T01:13:39.751Z,11.70
2023-03-31T01:16:08.390Z,11.70
2023-03-31T01:18:35.574Z,11.70
2023-03-31T01:21:59.971Z,11.80
2023-03-31T01:24:58.023Z,11.90
2023-03-31T01:27:50.484Z,11.80
2023-03-31T01:30:35.988Z,11.70
2023-03-31T01:33:29.485Z,11.70
2023-03-31T01:36:20.211Z,11.50
2023-03-31T01:39:28.720Z,11.70
2023-03-31T01:42:06.018Z,11.80
2023-03-31T01:44:43.653Z,11.80
2023-03-31T01:47:16.784Z,11.80
2023-03-31T01:49:49.375Z,11.80
2023-03-31T01:52:22.905Z,11.90
2023-03-31T01:54:54.819Z,11.90
2023-03-31T01:57:28.274Z,11.90
2023-03-31T02:00:02.391Z,11.70
2023-03-31T02:02:35.092Z,11.80
2023-03-31T02:05:06.782Z,11.80
2023-03-31T02:07:38.634Z,11.80
2023-03-31T02:10:08.975Z,11.80
2023-03-31T02:12:39.959Z,11.70
2023-03-31T02:15:11.810Z,11.60
2023-03-31T02:17:41.547Z,11.60
2023-03-31T02:20:12.740Z,11.60
2023-03-31T02:22:43.618Z,11.70
2023-03-31T02:25:13.770Z,11.60
2023-03-31T02:27:44.516Z,11.70
2023-03-31T02:30:13.109Z,11.70
2023-03-31T02:32:42.490Z,11.70
2023-03-31T02:35:12.306Z,11.70
2023-03-31T02:37:41.089Z,11.60
2023-03-31T02:40:12.432Z,11.60
2023-03-31T02:42:41.797Z,11.60
2023-03-31T02:45:42.185Z,11.60
2023-03-31T02:48:13.383Z,11.70
2023-03-31T02:51:00.840Z,11.60
2023-03-31T02:53:37.570Z,11.70
2023-03-31T02:56:18.829Z,11.70
2023-03-31T02:58:57.586Z,11.60
2023-03-31T03:01:39.390Z,11.80
2023-03-31T03:04:18.873Z,11.70
2023-03-31T03:06:56.974Z,11.70
2023-03-31T03:09:36.053Z,11.70
2023-03-31T03:12:11.697Z,11.60
2023-03-31T03:14:50.850Z,11.70
2023-03-31T03:17:23.205Z,11.70
2023-03-31T03:19:55.665Z,11.60
2023-03-31T03:22:23.093Z,11.60
2023-03-31T03:24:50.469Z,11.60
2023-03-31T03:27:17.682Z,11.60
2023-03-31T03:29:46.044Z,11.50
2023-03-31T03:32:13.046Z,11.30
2023-03-31T03:34:40.480Z,11.40
2023-03-31T03:37:07.466Z,11.20
2023-03-31T03:39:34.395Z,11.00
2023-03-31T03:42:01.357Z,10.60
2023-03-31T03:44:28.329Z,10.40
2023-03-31T03:46:56.889Z,10.30
2023-03-31T03:49:23.815Z,10.40
2023-03-31T03:51:51.016Z,10.50
2023-03-31T03:54:18.051Z,10.30
2023-03-31T03:56:45.096Z,10.30
2023-03-31T03:59:12.488Z,10.30
2023-03-31T04:01:39.491Z,10.50
2023-03-31T04:04:07.823Z,10.70
2023-03-31T04:06:35.146Z,10.80
2023-03-31T04:09:02.122Z,10.90
2023-03-31T04:11:29.657Z,11.10
2023-03-31T04:13:56.634Z,11.20
2023-03-31T04:16:23.655Z,11.00
2023-03-31T04:18:50.558Z,11.00
2023-03-31T04:21:19.042Z,11.00
2023-03-31T04:23:45.975Z,11.00
2023-03-31T04:26:13.808Z,11.00
2023-03-31T04:28:41.383Z,11.00
2023-03-31T04:31:10.703Z,11.10
2023-03-31T04:33:37.865Z,11.10
2023-03-31T04:36:05.561Z,11.10
2023-03-31T04:38:33.996Z,11.20
2023-03-31T04:41:00.935Z,11.20
2023-03-31T04:43:27.980Z,11.20
2023-03-31T04:45:54.945Z,11.30
2023-03-31T04:48:22.000Z,11.30
2023-03-31T04:50:49.032Z,11.30
2023-03-31T04:53:16.529Z,11.30
2023-03-31T04:55:44.876Z,11.40
2023-03-31T04:58:11.921Z,11.40
2023-03-31T05:00:38.884Z,11.20
2023-03-31T05:03:05.904Z,11.30
2023-03-31T05:05:33.321Z,11.30
2023-03-31T05:08:00.286Z,11.30
2023-03-31T05:10:27.381Z,11.40
2023-03-31T05:12:55.752Z,11.50
2023-03-31T05:15:22.724Z,11.40
2023-03-31T05:17:49.705Z,11.30
2023-03-31T05:20:16.975Z,11.30
2023-03-31T05:22:44.203Z,11.40
2023-03-31T05:25:11.951Z,11.40
2023-03-31T05:27:38.986Z,11.30
2023-03-31T05:30:08.556Z,11.30
2023-03-31T05:32:35.552Z,11.30
2023-03-31T05:35:02.557Z,11.30
2023-03-31T05:37:29.481Z,11.40
2023-03-31T05:39:56.452Z,11.40
2023-03-31T05:42:23.441Z,11.40
2023-03-31T05:44:50.634Z,11.60
2023-03-31T05:47:19.094Z,11.60
2023-03-31T05:49:46.095Z,11.60
2023-03-31T05:52:13.136Z,11.70
2023-03-31T05:54:40.076Z,11.70
2023-03-31T05:57:07.585Z,11.60
2023-03-31T05:59:34.492Z,11.60
2023-03-31T06:02:01.650Z,11.60
2023-03-31T06:04:30.145Z,11.60
2023-03-31T06:06:57.157Z,11.60
2023-03-31T06:09:24.606Z,11.60
2023-03-31T06:11:51.616Z,11.70
2023-03-31T06:14:18.705Z,11.70
2023-03-31T06:16:45.694Z,11.70
2023-03-31T06:19:12.723Z,11.80
2023-03-31T06:21:41.459Z,11.80
2023-03-31T06:24:09.367Z,11.90
2023-03-31T06:26:36.486Z,12.00
2023-03-31T06:29:03.557Z,12.10
2023-03-31T06:31:30.577Z,12.00
2023-03-31T06:33:57.709Z,12.00
2023-03-31T06:36:24.697Z,11.90
2023-03-31T06:38:53.677Z,11.90
2023-03-31T06:41:20.871Z,12.00
2023-03-31T06:43:47.951Z,12.10
2023-03-31T06:46:14.952Z,12.20
2023-03-31T06:48:41.989Z,12.20
2023-03-31T06:51:09.304Z,12.10
2023-03-31T06:53:36.793Z,12.10
2023-03-31T06:56:06.408Z,12.10
2023-03-31T06:58:34.268Z,12.20
2023-03-31T07:01:03.133Z,12.20
2023-03-31T07:03:30.276Z,12.10
2023-03-31T07:05:57.350Z,12.20
2023-03-31T07:08:24.607Z,12.20
2023-03-31T07:10:55.615Z,12.20
2023-03-31T07:13:24.870Z,12.20
2023-03-31T07:15:52.279Z,12.20
2023-03-31T07:18:19.784Z,12.20
2023-03-31T07:20:48.707Z,12.30
2023-03-31T07:23:16.566Z,12.30
2023-03-31T07:25:43.665Z,12.30
2023-03-31T07:28:10.671Z,12.30
2023-03-31T07:30:40.723Z,12.20
2023-03-31T07:33:08.130Z,12.10
2023-03-31T07:35:38.389Z,12.00
2023-03-31T07:38:05.490Z,12.00
2023-03-31T07:40:32.770Z,12.00
2023-03-31T07:42:59.933Z,11.90
2023-03-31T07:45:27.542Z,12.00
2023-03-31T07:47:56.028Z,12.00
2023-03-31T07:50:23.705Z,12.10
2023-03-31T07:52:51.283Z,12.10
2023-03-31T07:55:18.415Z,12.00
2023-03-31T07:57:45.589Z,11.90
2023-03-31T08:00:14.331Z,11.90
2023-03-31T08:02:42.992Z,12.00
2023-03-31T08:05:13.458Z,12.10
2023-03-31T08:07:42.719Z,12.00
2023-03-31T08:10:13.627Z,12.10
2023-03-31T08:12:40.892Z,12.10
2023-03-31T08:15:09.365Z,12.20
2023-03-31T08:17:36.440Z,12.10
2023-03-31T08:20:06.271Z,12.00
2023-03-31T08:22:36.646Z,12.00
2023-03-31T08:25:03.970Z,12.00
2023-03-31T08:27:33.564Z,12.00
2023-03-31T08:30:00.538Z,12.10
2023-03-31T08:32:27.491Z,12.10
2023-03-31T08:34:54.458Z,12.00
2023-03-31T08:37:21.417Z,11.90
2023-03-31T08:39:49.737Z,11.90
2023-03-31T08:42:22.880Z,11.90
2023-03-31T08:44:58.078Z,11.90
2023-03-31T08:47:27.645Z,12.00
2023-03-31T08:49:58.223Z,11.90
2023-03-31T08:52:31.945Z,12.00
2023-03-31T08:55:05.077Z,12.00
2023-03-31T08:57:38.415Z,12.30
2023-03-31T09:00:06.917Z,12.30
2023-03-31T09:02:43.558Z,12.30
2023-03-31T09:05:26.069Z,12.30
2023-03-31T09:08:04.644Z,12.20
2023-03-31T09:10:48.142Z,12.10
2023-03-31T09:13:41.994Z,12.10
2023-03-31T09:16:16.301Z,12.20
2023-03-31T09:18:44.254Z,12.20
2023-03-31T09:21:17.342Z,12.30
2023-03-31T09:23:48.600Z,12.40
2023-03-31T09:26:25.093Z,12.60
2023-03-31T09:28:54.696Z,12.70
2023-03-31T09:31:22.511Z,12.70
2023-03-31T09:33:53.134Z,12.60
2023-03-31T09:36:21.740Z,12.70
2023-03-31T09:38:49.844Z,12.60
2023-03-31T09:41:19.089Z,12.50
2023-03-31T09:43:47.898Z,12.40
2023-03-31T09:46:18.963Z,12.40
2023-03-31T09:48:53.816Z,12.40
2023-03-31T09:51:26.654Z,12.30
2023-03-31T09:53:59.315Z,12.30
2023-03-31T09:56:44.078Z,12.20
2023-03-31T09:59:15.913Z,12.20
2023-03-31T10:01:43.833Z,12.40
2023-03-31T10:04:19.183Z,12.40
2023-03-31T10:06:46.407Z,12.50
2023-03-31T10:09:13.525Z,12.60
2023-03-31T10:11:55.884Z,12.40
2023-03-31T10:14:26.602Z,12.40
2023-03-31T10:16:55.028Z,12.40
2023-03-31T10:19:24.303Z,12.40
2023-03-31T10:21:57.618Z,12.50
2023-03-31T10:24:25.013Z,12.60
2023-03-31T10:26:56.970Z,12.70
2023-03-31T10:29:29.923Z,12.70
2023-03-31T10:32:03.729Z,12.70
2023-03-31T10:34:31.836Z,12.70
2023-03-31T10:36:58.853Z,12.70
2023-03-31T10:39:31.734Z,12.70
2023-03-31T10:42:00.273Z,12.70
2023-03-31T10:44:35.506Z,12.60
2023-03-31T10:47:16.096Z,12.40
2023-03-31T10:49:44.209Z,12.20
2023-03-31T10:52:19.955Z,12.00
2023-03-31T10:54:48.504Z,11.90
2023-03-31T10:57:18.622Z,12.00
2023-03-31T11:00:04.978Z,12.00
2023-03-31T11:02:59.064Z,12.00
2023-03-31T11:05:33.551Z,12.00
2023-03-31T11:08:13.194Z,12.00
2023-03-31T11:11:05.139Z,11.90
2023-03-31T11:13:40.071Z,12.00
2023-03-31T11:16:17.467Z,12.20
2023-03-31T11:18:54.749Z,12.30
2023-03-31T11:21:27.631Z,12.20
2023-03-31T11:24:03.432Z,12.20
2023-03-31T11:26:44.035Z,12.30
2023-03-31T11:29:25.946Z,12.40
2023-03-31T11:31:58.426Z,12.60
2023-03-31T11:34:51.681Z,12.60
2023-03-31T11:37:33.254Z,12.80
2023-03-31T11:40:28.547Z,12.70
2023-03-31T11:43:00.818Z,12.70
2023-03-31T11:45:33.545Z,12.70
2023-03-31T11:48:07.441Z,12.80
2023-03-31T11:50:38.568Z,12.90
2023-03-31T11:53:11.357Z,12.80
2023-03-31T11:55:39.969Z,12.80
2023-03-31T11:58:12.657Z,12.70
2023-03-31T12:00:44.228Z,12.70
2023-03-31T12:03:15.742Z,12.60
2023-03-31T12:05:46.446Z,12.50
2023-03-31T12:08:19.221Z,12.40
2023-03-31T12:10:51.766Z,12.40
2023-03-31T12:13:37.296Z,12.10
2023-03-31T12:16:11.871Z,11.80
2023-03-31T12:18:42.647Z,11.70
2023-03-31T12:21:10.624Z,11.70
2023-03-31T12:23:41.726Z,11.80
2023-03-31T12:26:25.051Z,11.90
2023-03-31T12:28:58.104Z,11.90
2023-03-31T12:31:28.491Z,11.90
2023-03-31T12:33:59.563Z,12.00
2023-03-31T12:36:39.072Z,12.00
2023-03-31T12:39:19.107Z,12.10
2023-03-31T12:42:02.085Z,12.10
2023-03-31T12:44:38.977Z,12.20
2023-03-31T12:47:23.667Z,12.30
2023-03-31T12:50:12.691Z,12.30
2023-03-31T12:52:47.570Z,12.30
2023-03-31T12:55:31.716Z,12.20
2023-03-31T12:58:32.902Z,12.20
2023-03-31T13:01:05.600Z,12.30
2023-03-31T13:03:42.244Z,12.30
2023-03-31T13:06:11.851Z,12.30
2023-03-31T13:08:56.364Z,12.30
2023-03-31T13:11:37.384Z,12.20
2023-03-31T13:14:07.386Z,12.30
2023-03-31T13:16:35.710Z,12.20
2023-03-31T13:19:04.836Z,12.00
2023-03-31T13:21:31.958Z,12.00
2023-03-31T13:24:01.633Z,11.90
2023-03-31T13:26:49.644Z,12.00
2023-03-31T13:29:22.478Z,11.90
2023-03-31T13:32:21.228Z,11.90
2023-03-31T13:34:57.285Z,12.10
2023-03-31T13:37:53.872Z,12.10
2023-03-31T13:40:41.147Z,12.20
2023-03-31T13:43:35.066Z,12.20
2023-03-31T13:46:31.562Z,12.10
2023-03-31T13:49:10.135Z,12.20
2023-03-31T13:51:45.834Z,12.10
2023-03-31T13:54:52.129Z,12.10
2023-03-31T13:57:39.323Z,12.10
2023-03-31T14:00:32.666Z,12.00
2023-03-31T14:03:21.103Z,12.00
2023-03-31T14:05:53.702Z,12.00
2023-03-31T14:08:33.501Z,11.90
2023-03-31T14:11:16.194Z,11.80
2023-03-31T14:13:43.132Z,11.80
2023-03-31T14:16:10.855Z,11.80
2023-03-31T14:18:45.763Z,11.80
2023-03-31T14:21:23.138Z,11.90
2023-03-31T14:24:00.114Z,11.90
2023-03-31T14:26:42.265Z,11.90
2023-03-31T14:29:20.031Z,12.10
2023-03-31T14:31:56.123Z,12.20
2023-03-31T14:34:53.257Z,12.20
2023-03-31T14:37:20.998Z,12.30
2023-03-31T14:39:51.024Z,12.40
2023-03-31T14:42:19.701Z,12.20
2023-03-31T14:44:48.382Z,12.00
2023-03-31T14:47:20.132Z,12.00
2023-03-31T14:49:47.470Z,11.90
2023-03-31T14:52:17.636Z,11.80
2023-03-31T14:54:45.821Z,11.80
2023-03-31T14:57:17.573Z,11.90
2023-03-31T14:59:46.465Z,11.90
2023-03-31T15:02:17.734Z,11.90
2023-03-31T15:04:47.678Z,11.90
2023-03-31T15:07:16.329Z,11.90
2023-03-31T15:09:48.019Z,11.90
2023-03-31T15:12:18.936Z,11.80
2023-03-31T15:14:49.209Z,11.70
2023-03-31T15:17:21.464Z,11.60
2023-03-31T15:19:53.585Z,11.70
2023-03-31T15:22:22.892Z,11.70
2023-03-31T15:24:50.032Z,11.70
2023-03-31T15:27:33.966Z,11.80
2023-03-31T15:30:07.493Z,11.80
2023-03-31T15:32:36.600Z,11.70
2023-03-31T15:37:39.691Z,11.60
2023-03-31T15:40:17.056Z,11.60
2023-03-31T15:42:55.245Z,11.70
2023-03-31T15:45:50.044Z,11.60
2023-03-31T15:48:23.437Z,11.60
2023-03-31T15:50:50.878Z,11.60
2023-03-31T15:53:26.757Z,11.60
2023-03-31T15:55:54.844Z,11.60
2023-03-31T15:58:44.956Z,11.60
2023-03-31T16:01:12.404Z,11.60
2023-03-31T16:03:39.410Z,11.60
2023-03-31T16:06:15.142Z,11.50
2023-03-31T16:08:47.255Z,11.50
2023-03-31T16:11:18.494Z,11.50
2023-03-31T16:13:50.273Z,11.50
2023-03-31T16:16:20.532Z,11.50
2023-03-31T16:18:50.564Z,11.50
2023-03-31T16:21:23.188Z,11.40
2023-03-31T16:23:54.192Z,11.30
2023-03-31T16:26:22.825Z,11.30
2023-03-31T16:28:52.818Z,11.20
2023-03-31T16:31:32.488Z,11.10
2023-03-31T16:33:59.586Z,11.20
2023-03-31T16:36:26.585Z,11.10
2023-03-31T16:38:54.139Z,11.10
2023-03-31T16:41:21.703Z,11.00
2023-03-31T16:43:48.770Z,11.00
2023-03-31T16:46:17.144Z,10.90
2023-03-31T16:48:44.203Z,10.80
2023-03-31T16:51:11.116Z,10.70
2023-03-31T16:53:38.130Z,10.60
2023-03-31T16:56:06.937Z,10.60
2023-03-31T16:58:35.218Z,10.50
2023-03-31T17:01:02.676Z,10.40
2023-03-31T17:03:31.161Z,10.30
2023-03-31T17:06:03.683Z,10.40
2023-03-31T17:08:30.596Z,10.30
2023-03-31T17:11:01.545Z,10.40
2023-03-31T17:13:28.495Z,10.40
2023-03-31T17:16:12.530Z,10.50
2023-03-31T17:18:43.898Z,10.50
2023-03-31T17:21:12.958Z,10.50
2023-03-31T17:23:40.164Z,10.50
2023-03-31T17:26:08.791Z,10.40
2023-03-31T17:28:36.258Z,10.40
2023-03-31T17:31:11.113Z,10.40
2023-03-31T17:33:37.922Z,10.50
2023-03-31T17:36:06.846Z,10.50
2023-03-31T17:38:33.874Z,10.40
2023-03-31T17:41:03.407Z,10.50
2023-03-31T17:43:30.352Z,10.40
2023-03-31T17:46:01.436Z,10.50
2023-03-31T17:48:28.486Z,10.50
2023-03-31T17:50:55.454Z,10.40
2023-03-31T17:53:24.238Z,10.50
2023-03-31T17:55:51.254Z,10.60
2023-03-31T17:58:18.179Z,10.50
2023-03-31T18:00:51.132Z,10.50
2023-03-31T18:03:18.484Z,10.60
2023-03-31T18:05:45.418Z,10.50
2023-03-31T18:08:12.391Z,10.40
2023-03-31T18:10:41.225Z,10.40
2023-03-31T18:13:08.372Z,10.40
2023-03-31T18:15:35.373Z,10.40
2023-03-31T18:18:02.634Z,10.30
2023-03-31T18:20:29.715Z,10.30
2023-03-31T18:22:56.814Z,10.30
2023-03-31T18:25:23.761Z,10.50
2023-03-31T18:27:52.346Z,10.40
2023-03-31T18:30:19.419Z,10.50
2023-03-31T18:32:46.404Z,10.50
2023-03-31T18:35:13.542Z,10.40
2023-03-31T18:37:43.536Z,10.40
2023-03-31T18:40:11.341Z,10.40
2023-03-31T18:42:38.281Z,10.50
2023-03-31T18:45:07.473Z,10.50
2023-03-31T18:47:34.432Z,10.60
2023-03-31T18:50:01.412Z,10.60
2023-03-31T18:52:28.606Z,10.50
2023-03-31T18:54:55.533Z,10.40
2023-03-31T18:57:22.916Z,10.40
2023-03-31T18:59:49.896Z,10.40
2023-03-31T19:02:18.650Z,10.40
2023-03-31T19:04:46.422Z,10.40
2023-03-31T19:07:13.655Z,10.50
2023-03-31T19:09:40.669Z,10.50
2023-03-31T19:12:08.028Z,10.40
2023-03-31T19:14:35.104Z,10.50
2023-03-31T19:17:02.342Z,10.50
2023-03-31T19:19:30.803Z,10.50
2023-03-31T19:21:57.980Z,10.50
2023-03-31T19:24:25.152Z,10.40
2023-03-31T19:26:52.088Z,10.30
2023-03-31T19:29:19.181Z,10.20
2023-03-31T19:31:46.496Z,10.30
2023-03-31T19:34:13.681Z,10.30
2023-03-31T19:36:42.373Z,10.30
2023-03-31T19:39:09.418Z,10.30
2023-03-31T19:41:36.496Z,10.30
2023-03-31T19:44:03.497Z,10.20
2023-03-31T19:46:30.863Z,10.20
2023-03-31T19:48:58.080Z,10.20
2023-03-31T19:51:25.326Z,10.20
2023-03-31T19:53:53.690Z,10.10
2023-03-31T19:56:20.708Z,10.20
2023-03-31T19:58:47.822Z,10.10
2023-03-31T20:01:16.627Z,10.10
2023-03-31T20:03:43.902Z,10.10
2023-03-31T20:06:13.295Z,10.10
2023-03-31T20:08:41.603Z,10.10
2023-03-31T20:11:12.245Z,10.10
2023-03-31T20:13:40.127Z,10.10
2023-03-31T20:16:09.543Z,10.10
2023-03-31T20:18:37.665Z,10.00
2023-03-31T20:21:06.999Z,10.00
2023-03-31T20:23:34.933Z,10.00
2023-03-31T20:26:01.926Z,10.00
2023-03-31T20:28:32.502Z,10.00
2023-03-31T20:30:59.682Z,10.00
2023-03-31T20:33:26.729Z,10.00
2023-03-31T20:36:01.850Z,10.00
2023-03-31T20:38:28.919Z,10.00
2023-03-31T20:40:56.693Z,10.00
2023-03-31T20:43:24.124Z,10.00
2023-03-31T20:45:56.719Z,10.00
2023-03-31T20:48:24.083Z,10.00
2023-03-31T20:50:51.028Z,10.00
2023-03-31T20:53:17.984Z,10.00
2023-03-31T20:55:44.995Z,10.00
2023-03-31T20:58:12.012Z,10.00
2023-03-31T21:00:39.074Z,10.00
2023-03-31T21:03:07.616Z,10.00
2023-03-31T21:05:41.242Z,10.00
2023-03-31T21:08:08.367Z,9.90
2023-03-31T21:10:40.339Z,10.00
2023-03-31T21:13:07.310Z,10.00
2023-03-31T21:15:34.290Z,9.90
2023-03-31T21:18:01.270Z,9.90
2023-03-31T21:20:32.019Z,9.90
2023-03-31T21:22:59.848Z,9.90
2023-03-31T21:25:27.702Z,9.80
2023-03-31T21:27:54.609Z,9.80
2023-03-31T21:30:21.631Z,9.90
2023-03-31T21:32:48.622Z,9.90
2023-03-31T21:35:15.763Z,9.80
2023-03-31T21:37:44.099Z,9.90
2023-03-31T21:40:12.201Z,9.80
2023-03-31T21:42:39.181Z,9.80
2023-03-31T21:45:07.484Z,9.80
2023-03-31T21:47:34.478Z,9.80
2023-03-31T21:50:01.759Z,9.80
2023-03-31T21:52:28.776Z,9.80
2023-03-31T21:54:57.107Z,9.80
2023-03-31T21:57:24.046Z,9.90
2023-03-31T21:59:51.017Z,9.80
2023-03-31T22:02:18.019Z,9.90
2023-03-31T22:04:45.390Z,9.90
2023-03-31T22:07:12.419Z,9.90
2023-03-31T22:09:39.382Z,9.90
2023-03-31T22:12:07.961Z,9.80
2023-03-31T22:14:37.015Z,9.90
2023-03-31T22:17:04.109Z,9.90
2023-03-31T22:19:31.082Z,9.80
2023-03-31T22:21:58.113Z,9.80
2023-03-31T22:24:25.304Z,9.80
2023-03-31T22:26:52.258Z,9.80
2023-03-31T22:29:20.709Z,9.80
2023-03-31T22:31:47.845Z,9.90
2023-03-31T22:34:14.980Z,9.90
2023-03-31T22:36:41.933Z,9.90
2023-03-31T22:39:08.832Z,9.90
2023-03-31T22:41:35.834Z,9.90
2023-03-31T22:44:03.208Z,9.80
2023-03-31T22:46:31.649Z,9.90
2023-03-31T22:48:58.875Z,9.90
2023-03-31T22:51:25.848Z,9.90
2023-03-31T22:53:54.168Z,9.90
2023-03-31T22:56:22.046Z,9.80
2023-03-31T22:58:49.345Z,9.90
2023-03-31T23:01:19.596Z,9.80
2023-03-31T23:03:48.281Z,9.80
2023-03-31T23:06:15.669Z,9.80
2023-03-31T23:08:43.136Z,9.80
2023-03-31T23:11:12.292Z,9.80
2023-03-31T23:13:39.820Z,9.80
2023-03-31T23:16:08.286Z,9.80
2023-03-31T23:18:35.984Z,9.70
2023-03-31T23:21:06.828Z,9.80
2023-03-31T23:23:34.108Z,9.80
2023-03-31T23:26:01.702Z,9.80
2023-03-31T23:28:28.774Z,9.80
2023-03-31T23:30:56.316Z,9.70
2023-03-31T23:33:23.588Z,9.70
2023-03-31T23:35:50.893Z,9.70
2023-03-31T23:38:19.688Z,9.70
2023-03-31T23:40:46.910Z,9.80
2023-03-31T23:43:14.161Z,9.80
2023-03-31T23:45:41.183Z,9.80
2023-03-31T23:48:08.604Z,9.80
2023-03-31T23:50:35.625Z,9.80
2023-03-31T23:53:02.570Z,9.70
2023-03-31T23:55:31.543Z,9.80
2023-03-31T23:57:58.725Z,9.80
